sensor_id;sensor_type;location;lat;lon;timestamp;pressure;altitude;pressure_sealevel;temperature;humidity
24558;BME280;12726;49.148;8.582;2023-02-14T00:01:51;102352.03;;;0.65;100.00
24558;BME280;12726;49.148;8.582;2023-02-14T00:04:36;102350.63;;;0.59;100.00
24558;BME280;12726;49.148;8.582;2023-02-14T00:07:26;102342.03;;;0.56;100.00
24558;BME280;12726;49.148;8.582;2023-02-14T00:10:14;102344.97;;;0.51;100.00
24558;BME280;12726;49.148;8.582;2023-02-14T00:12:58;102349.66;;;0.48;100.00
24558;BME280;12726;49.148;8.582;2023-02-14T00:15:45;102347.19;;;0.45;100.00
24558;BME280;12726;49.148;8.582;2023-02-14T00:18:29;102348.34;;;0.41;100.00
24558;BME280;12726;49.148;8.582;2023-02-14T00:21:28;102348.53;;;0.37;100.00
24558;BME280;12726;49.148;8.582;2023-02-14T00:24:15;102342.59;;;0.34;100.00
24558;BME280;12726;49.148;8.582;2023-02-14T00:27:02;102350.53;;;0.34;100.00
24558;BME280;12726;49.148;8.582;2023-02-14T00:29:47;102337.56;;;0.29;100.00
24558;BME280;12726;49.148;8.582;2023-02-14T00:32:33;102343.72;;;0.30;100.00
24558;BME280;12726;49.148;8.582;2023-02-14T00:35:18;102348.28;;;0.28;100.00
24558;BME280;12726;49.148;8.582;2023-02-14T00:38:04;102345.72;;;0.26;100.00
24558;BME280;12726;49.148;8.582;2023-02-14T00:40:49;102341.38;;;0.25;100.00
24558;BME280;12726;49.148;8.582;2023-02-14T00:43:36;102350.28;;;0.24;100.00
24558;BME280;12726;49.148;8.582;2023-02-14T00:46:22;102350.19;;;0.26;100.00
24558;BME280;12726;49.148;8.582;2023-02-14T00:49:08;102351.13;;;0.25;100.00
24558;BME280;12726;49.148;8.582;2023-02-14T00:51:53;102345.81;;;0.25;100.00
24558;BME280;12726;49.148;8.582;2023-02-14T00:54:39;102336.25;;;0.22;100.00
24558;BME280;12726;49.148;8.582;2023-02-14T00:57:24;102334.78;;;0.18;100.00
24558;BME280;12726;49.148;8.582;2023-02-14T01:00:12;102334.69;;;0.20;100.00
24558;BME280;12726;49.148;8.582;2023-02-14T01:02:57;102336.66;;;0.16;100.00
24558;BME280;12726;49.148;8.582;2023-02-14T01:05:43;102344.06;;;0.11;100.00
24558;BME280;12726;49.148;8.582;2023-02-14T01:08:29;102351.34;;;0.08;100.00
24558;BME280;12726;49.148;8.582;2023-02-14T01:11:15;102349.44;;;0.10;100.00
24558;BME280;12726;49.148;8.582;2023-02-14T01:14:01;102343.50;;;0.06;100.00
24558;BME280;12726;49.148;8.582;2023-02-14T01:16:48;102346.56;;;0.00;100.00
24558;BME280;12726;49.148;8.582;2023-02-14T01:19:33;102347.75;;;-0.06;100.00
24558;BME280;12726;49.148;8.582;2023-02-14T01:22:19;102349.00;;;-0.11;100.00
24558;BME280;12726;49.148;8.582;2023-02-14T01:25:05;102343.88;;;-0.14;100.00
24558;BME280;12726;49.148;8.582;2023-02-14T01:27:51;102358.09;;;-0.15;100.00
24558;BME280;12726;49.148;8.582;2023-02-14T01:30:36;102364.50;;;-0.19;100.00
24558;BME280;12726;49.148;8.582;2023-02-14T01:33:23;102358.47;;;-0.21;100.00
24558;BME280;12726;49.148;8.582;2023-02-14T01:36:14;102359.44;;;-0.22;100.00
24558;BME280;12726;49.148;8.582;2023-02-14T01:39:02;102345.13;;;-0.20;100.00
24558;BME280;12726;49.148;8.582;2023-02-14T01:41:48;102354.88;;;-0.20;100.00
24558;BME280;12726;49.148;8.582;2023-02-14T01:44:54;102357.50;;;-0.20;100.00
24558;BME280;12726;49.148;8.582;2023-02-14T01:47:42;102354.22;;;-0.24;100.00
24558;BME280;12726;49.148;8.582;2023-02-14T01:50:33;102354.59;;;-0.30;100.00
24558;BME280;12726;49.148;8.582;2023-02-14T01:53:23;102353.66;;;-0.29;100.00
24558;BME280;12726;49.148;8.582;2023-02-14T01:56:12;102360.16;;;-0.34;100.00
24558;BME280;12726;49.148;8.582;2023-02-14T01:59:01;102361.31;;;-0.38;100.00
24558;BME280;12726;49.148;8.582;2023-02-14T02:01:50;102356.41;;;-0.45;100.00
24558;BME280;12726;49.148;8.582;2023-02-14T02:04:38;102360.16;;;-0.49;100.00
24558;BME280;12726;49.148;8.582;2023-02-14T02:07:28;102361.38;;;-0.54;100.00
24558;BME280;12726;49.148;8.582;2023-02-14T02:10:13;102367.13;;;-0.62;100.00
24558;BME280;12726;49.148;8.582;2023-02-14T02:13:04;102361.47;;;-0.70;100.00
24558;BME280;12726;49.148;8.582;2023-02-14T02:15:57;102367.31;;;-0.79;100.00
24558;BME280;12726;49.148;8.582;2023-02-14T02:18:57;102367.00;;;-0.89;100.00
24558;BME280;12726;49.148;8.582;2023-02-14T02:22:03;102358.94;;;-1.01;100.00
24558;BME280;12726;49.148;8.582;2023-02-14T02:25:00;102359.13;;;-1.04;100.00
24558;BME280;12726;49.148;8.582;2023-02-14T02:28:11;102355.13;;;-1.11;100.00
24558;BME280;12726;49.148;8.582;2023-02-14T02:31:20;102363.16;;;-1.13;100.00
24558;BME280;12726;49.148;8.582;2023-02-14T02:34:29;102357.69;;;-1.10;100.00
24558;BME280;12726;49.148;8.582;2023-02-14T02:37:31;102355.63;;;-1.05;100.00
24558;BME280;12726;49.148;8.582;2023-02-14T02:40:31;102352.03;;;-1.04;100.00
24558;BME280;12726;49.148;8.582;2023-02-14T02:43:37;102351.97;;;-1.02;100.00
24558;BME280;12726;49.148;8.582;2023-02-14T02:46:33;102356.31;;;-1.01;100.00
24558;BME280;12726;49.148;8.582;2023-02-14T02:49:40;102348.19;;;-0.98;100.00
24558;BME280;12726;49.148;8.582;2023-02-14T02:52:53;102347.25;;;-0.97;100.00
24558;BME280;12726;49.148;8.582;2023-02-14T02:55:53;102356.97;;;-0.98;100.00
24558;BME280;12726;49.148;8.582;2023-02-14T02:59:01;102354.31;;;-0.98;100.00
24558;BME280;12726;49.148;8.582;2023-02-14T03:01:51;102349.22;;;-1.01;100.00
24558;BME280;12726;49.148;8.582;2023-02-14T03:04:41;102351.75;;;-0.99;100.00
24558;BME280;12726;49.148;8.582;2023-02-14T03:07:37;102344.19;;;-1.05;100.00
24558;BME280;12726;49.148;8.582;2023-02-14T03:10:27;102355.19;;;-0.97;100.00
24558;BME280;12726;49.148;8.582;2023-02-14T03:13:29;102342.84;;;-0.83;100.00
24558;BME280;12726;49.148;8.582;2023-02-14T03:16:26;102341.63;;;-0.63;100.00
24558;BME280;12726;49.148;8.582;2023-02-14T03:19:24;102344.50;;;-0.52;100.00
24558;BME280;12726;49.148;8.582;2023-02-14T03:22:36;102340.78;;;-0.49;100.00
24558;BME280;12726;49.148;8.582;2023-02-14T03:25:40;102334.09;;;-0.41;100.00
24558;BME280;12726;49.148;8.582;2023-02-14T03:28:33;102337.59;;;-0.40;100.00
24558;BME280;12726;49.148;8.582;2023-02-14T03:31:26;102337.59;;;-0.26;100.00
24558;BME280;12726;49.148;8.582;2023-02-14T03:34:15;102342.09;;;-0.28;100.00
24558;BME280;12726;49.148;8.582;2023-02-14T03:37:05;102335.22;;;-0.30;100.00
24558;BME280;12726;49.148;8.582;2023-02-14T03:39:59;102343.53;;;-0.22;100.00
24558;BME280;12726;49.148;8.582;2023-02-14T03:42:51;102348.53;;;-0.18;100.00
24558;BME280;12726;49.148;8.582;2023-02-14T03:45:41;102356.00;;;-0.10;100.00
24558;BME280;12726;49.148;8.582;2023-02-14T03:48:30;102362.78;;;-0.06;100.00
24558;BME280;12726;49.148;8.582;2023-02-14T03:51:18;102358.19;;;-0.03;100.00
24558;BME280;12726;49.148;8.582;2023-02-14T03:54:06;102357.31;;;-0.03;100.00
24558;BME280;12726;49.148;8.582;2023-02-14T03:56:58;102353.34;;;0.04;100.00
24558;BME280;12726;49.148;8.582;2023-02-14T03:59:47;102359.88;;;-0.02;100.00
24558;BME280;12726;49.148;8.582;2023-02-14T04:02:35;102355.44;;;-0.01;100.00
24558;BME280;12726;49.148;8.582;2023-02-14T04:05:25;102360.13;;;0.08;100.00
24558;BME280;12726;49.148;8.582;2023-02-14T04:08:19;102363.16;;;0.02;100.00
24558;BME280;12726;49.148;8.582;2023-02-14T04:11:05;102364.97;;;0.02;100.00
24558;BME280;12726;49.148;8.582;2023-02-14T04:13:50;102363.53;;;0.10;100.00
24558;BME280;12726;49.148;8.582;2023-02-14T04:16:37;102365.44;;;0.08;100.00
24558;BME280;12726;49.148;8.582;2023-02-14T04:19:36;102356.75;;;0.06;100.00
24558;BME280;12726;49.148;8.582;2023-02-14T04:22:21;102356.28;;;0.14;100.00
24558;BME280;12726;49.148;8.582;2023-02-14T04:25:07;102354.06;;;0.20;100.00
24558;BME280;12726;49.148;8.582;2023-02-14T04:27:52;102350.66;;;0.18;100.00
24558;BME280;12726;49.148;8.582;2023-02-14T04:30:38;102346.31;;;0.17;100.00
24558;BME280;12726;49.148;8.582;2023-02-14T04:33:24;102348.19;;;0.15;100.00
24558;BME280;12726;49.148;8.582;2023-02-14T04:36:10;102343.75;;;0.16;100.00
24558;BME280;12726;49.148;8.582;2023-02-14T04:38:55;102346.78;;;0.24;100.00
24558;BME280;12726;49.148;8.582;2023-02-14T04:41:40;102345.19;;;0.21;100.00
24558;BME280;12726;49.148;8.582;2023-02-14T04:44:26;102344.34;;;0.21;100.00
24558;BME280;12726;49.148;8.582;2023-02-14T04:47:11;102345.56;;;0.15;100.00
24558;BME280;12726;49.148;8.582;2023-02-14T04:49:58;102343.75;;;0.16;100.00
24558;BME280;12726;49.148;8.582;2023-02-14T04:52:44;102342.41;;;0.23;100.00
24558;BME280;12726;49.148;8.582;2023-02-14T04:55:29;102343.56;;;0.19;100.00
24558;BME280;12726;49.148;8.582;2023-02-14T04:58:14;102347.56;;;0.12;100.00
24558;BME280;12726;49.148;8.582;2023-02-14T05:01:00;102345.94;;;0.09;100.00
24558;BME280;12726;49.148;8.582;2023-02-14T05:03:45;102341.09;;;0.16;100.00
24558;BME280;12726;49.148;8.582;2023-02-14T05:06:32;102335.13;;;0.26;100.00
24558;BME280;12726;49.148;8.582;2023-02-14T05:09:17;102339.31;;;0.16;100.00
24558;BME280;12726;49.148;8.582;2023-02-14T05:12:02;102338.09;;;0.08;100.00
24558;BME280;12726;49.148;8.582;2023-02-14T05:14:48;102332.53;;;0.12;100.00
24558;BME280;12726;49.148;8.582;2023-02-14T05:17:33;102331.75;;;0.10;100.00
24558;BME280;12726;49.148;8.582;2023-02-14T05:20:19;102334.50;;;0.09;100.00
24558;BME280;12726;49.148;8.582;2023-02-14T05:23:06;102338.66;;;0.13;100.00
24558;BME280;12726;49.148;8.582;2023-02-14T05:25:56;102335.31;;;0.23;100.00
24558;BME280;12726;49.148;8.582;2023-02-14T05:28:41;102343.13;;;0.12;100.00
24558;BME280;12726;49.148;8.582;2023-02-14T05:31:27;102334.97;;;0.15;100.00
24558;BME280;12726;49.148;8.582;2023-02-14T05:34:12;102344.34;;;0.21;100.00
24558;BME280;12726;49.148;8.582;2023-02-14T05:36:57;102339.28;;;0.30;100.00
24558;BME280;12726;49.148;8.582;2023-02-14T05:39:44;102338.16;;;0.34;100.00
24558;BME280;12726;49.148;8.582;2023-02-14T05:42:29;102343.63;;;0.31;100.00
24558;BME280;12726;49.148;8.582;2023-02-14T05:45:14;102343.84;;;0.28;100.00
24558;BME280;12726;49.148;8.582;2023-02-14T05:48:00;102344.66;;;0.29;100.00
24558;BME280;12726;49.148;8.582;2023-02-14T05:50:46;102351.66;;;0.30;100.00
24558;BME280;12726;49.148;8.582;2023-02-14T05:53:32;102347.97;;;0.32;100.00
24558;BME280;12726;49.148;8.582;2023-02-14T05:56:19;102340.78;;;0.34;100.00
24558;BME280;12726;49.148;8.582;2023-02-14T05:59:04;102342.88;;;0.29;100.00
24558;BME280;12726;49.148;8.582;2023-02-14T06:01:49;102350.28;;;0.24;100.00
24558;BME280;12726;49.148;8.582;2023-02-14T06:04:34;102355.13;;;0.18;100.00
24558;BME280;12726;49.148;8.582;2023-02-14T06:07:19;102351.25;;;0.09;100.00
24558;BME280;12726;49.148;8.582;2023-02-14T06:10:06;102353.16;;;0.07;100.00
24558;BME280;12726;49.148;8.582;2023-02-14T06:12:53;102351.91;;;0.13;100.00
24558;BME280;12726;49.148;8.582;2023-02-14T06:15:39;102350.22;;;0.12;100.00
24558;BME280;12726;49.148;8.582;2023-02-14T06:18:24;102347.25;;;0.16;100.00
24558;BME280;12726;49.148;8.582;2023-02-14T06:21:10;102355.13;;;0.18;100.00
24558;BME280;12726;49.148;8.582;2023-02-14T06:23:56;102365.06;;;0.14;100.00
24558;BME280;12726;49.148;8.582;2023-02-14T06:26:41;102362.69;;;0.10;100.00
24558;BME280;12726;49.148;8.582;2023-02-14T06:29:28;102360.81;;;0.12;100.00
24558;BME280;12726;49.148;8.582;2023-02-14T06:32:13;102364.53;;;0.22;100.00
24558;BME280;12726;49.148;8.582;2023-02-14T06:34:59;102365.63;;;0.19;100.00
24558;BME280;12726;49.148;8.582;2023-02-14T06:37:45;102358.78;;;0.15;100.00
24558;BME280;12726;49.148;8.582;2023-02-14T06:40:30;102368.91;;;0.23;100.00
24558;BME280;12726;49.148;8.582;2023-02-14T06:43:16;102368.41;;;0.30;100.00
24558;BME280;12726;49.148;8.582;2023-02-14T06:46:03;102372.97;;;0.28;100.00
24558;BME280;12726;49.148;8.582;2023-02-14T06:48:48;102367.69;;;0.28;100.00
24558;BME280;12726;49.148;8.582;2023-02-14T06:51:33;102378.56;;;0.24;100.00
24558;BME280;12726;49.148;8.582;2023-02-14T06:54:19;102379.03;;;0.16;100.00
24558;BME280;12726;49.148;8.582;2023-02-14T06:57:04;102374.59;;;0.17;100.00
24558;BME280;12726;49.148;8.582;2023-02-14T06:59:49;102370.44;;;0.13;100.00
24558;BME280;12726;49.148;8.582;2023-02-14T07:02:36;102377.25;;;0.17;100.00
24558;BME280;12726;49.148;8.582;2023-02-14T07:05:21;102368.44;;;0.16;100.00
24558;BME280;12726;49.148;8.582;2023-02-14T07:08:07;102378.00;;;0.19;100.00
24558;BME280;12726;49.148;8.582;2023-02-14T07:10:54;102377.78;;;0.22;100.00
24558;BME280;12726;49.148;8.582;2023-02-14T07:13:40;102377.44;;;0.28;100.00
24558;BME280;12726;49.148;8.582;2023-02-14T07:16:26;102374.78;;;0.28;100.00
24558;BME280;12726;49.148;8.582;2023-02-14T07:19:13;102381.88;;;0.27;100.00
24558;BME280;12726;49.148;8.582;2023-02-14T07:21:58;102382.97;;;0.37;100.00
24558;BME280;12726;49.148;8.582;2023-02-14T07:24:44;102380.03;;;0.42;100.00
24558;BME280;12726;49.148;8.582;2023-02-14T07:27:29;102375.38;;;0.46;100.00
24558;BME280;12726;49.148;8.582;2023-02-14T07:30:15;102381.34;;;0.49;100.00
24558;BME280;12726;49.148;8.582;2023-02-14T07:33:00;102380.69;;;0.46;100.00
24558;BME280;12726;49.148;8.582;2023-02-14T07:35:47;102378.47;;;0.52;100.00
24558;BME280;12726;49.148;8.582;2023-02-14T07:38:32;102373.78;;;0.43;100.00
24558;BME280;12726;49.148;8.582;2023-02-14T07:41:17;102363.84;;;0.47;100.00
24558;BME280;12726;49.148;8.582;2023-02-14T07:44:03;102374.97;;;0.52;100.00
24558;BME280;12726;49.148;8.582;2023-02-14T07:46:48;102372.69;;;0.60;100.00
24558;BME280;12726;49.148;8.582;2023-02-14T07:49:34;102365.41;;;0.63;100.00
24558;BME280;12726;49.148;8.582;2023-02-14T07:52:21;102366.19;;;0.78;100.00
24558;BME280;12726;49.148;8.582;2023-02-14T07:55:07;102366.41;;;0.88;100.00
24558;BME280;12726;49.148;8.582;2023-02-14T07:57:57;102358.56;;;0.86;100.00
24558;BME280;12726;49.148;8.582;2023-02-14T08:00:42;102373.75;;;0.84;100.00
24558;BME280;12726;49.148;8.582;2023-02-14T08:03:29;102373.06;;;0.81;100.00
24558;BME280;12726;49.148;8.582;2023-02-14T08:06:15;102372.03;;;0.83;100.00
24558;BME280;12726;49.148;8.582;2023-02-14T08:09:02;102365.13;;;0.81;100.00
24558;BME280;12726;49.148;8.582;2023-02-14T08:11:48;102368.97;;;0.89;100.00
24558;BME280;12726;49.148;8.582;2023-02-14T08:14:50;102369.59;;;0.93;100.00
24558;BME280;12726;49.148;8.582;2023-02-14T08:17:36;102373.25;;;1.04;100.00
24558;BME280;12726;49.148;8.582;2023-02-14T08:20:21;102364.53;;;1.02;100.00
24558;BME280;12726;49.148;8.582;2023-02-14T08:23:07;102366.06;;;1.06;100.00
24558;BME280;12726;49.148;8.582;2023-02-14T08:25:54;102362.97;;;1.12;100.00
24558;BME280;12726;49.148;8.582;2023-02-14T08:28:39;102363.09;;;1.11;100.00
24558;BME280;12726;49.148;8.582;2023-02-14T08:31:26;102367.88;;;1.18;100.00
24558;BME280;12726;49.148;8.582;2023-02-14T08:34:12;102373.19;;;1.18;100.00
24558;BME280;12726;49.148;8.582;2023-02-14T08:36:57;102366.91;;;1.20;100.00
24558;BME280;12726;49.148;8.582;2023-02-14T08:39:42;102374.97;;;1.18;100.00
24558;BME280;12726;49.148;8.582;2023-02-14T08:42:29;102376.78;;;1.17;100.00
24558;BME280;12726;49.148;8.582;2023-02-14T08:45:14;102371.38;;;1.19;100.00
24558;BME280;12726;49.148;8.582;2023-02-14T08:48:01;102372.31;;;1.18;100.00
24558;BME280;12726;49.148;8.582;2023-02-14T08:50:46;102364.25;;;1.20;100.00
24558;BME280;12726;49.148;8.582;2023-02-14T08:53:33;102363.41;;;1.32;100.00
24558;BME280;12726;49.148;8.582;2023-02-14T08:56:18;102361.84;;;1.42;100.00
24558;BME280;12726;49.148;8.582;2023-02-14T08:59:06;102371.19;;;1.47;100.00
24558;BME280;12726;49.148;8.582;2023-02-14T09:01:52;102370.00;;;1.39;100.00
24558;BME280;12726;49.148;8.582;2023-02-14T09:04:37;102373.59;;;1.38;100.00
24558;BME280;12726;49.148;8.582;2023-02-14T09:07:22;102377.22;;;1.37;100.00
24558;BME280;12726;49.148;8.582;2023-02-14T09:10:08;102374.38;;;1.52;100.00
24558;BME280;12726;49.148;8.582;2023-02-14T09:12:54;102368.19;;;1.65;100.00
24558;BME280;12726;49.148;8.582;2023-02-14T09:15:40;102364.59;;;1.66;100.00
24558;BME280;12726;49.148;8.582;2023-02-14T09:18:26;102372.22;;;1.83;100.00
24558;BME280;12726;49.148;8.582;2023-02-14T09:21:12;102372.53;;;1.78;100.00
24558;BME280;12726;49.148;8.582;2023-02-14T09:23:58;102374.44;;;1.89;100.00
24558;BME280;12726;49.148;8.582;2023-02-14T09:26:44;102374.13;;;1.93;99.70
24558;BME280;12726;49.148;8.582;2023-02-14T09:29:29;102367.75;;;1.96;99.00
24558;BME280;12726;49.148;8.582;2023-02-14T09:32:16;102372.13;;;1.84;98.28
24558;BME280;12726;49.148;8.582;2023-02-14T09:35:01;102372.22;;;1.83;99.84
24558;BME280;12726;49.148;8.582;2023-02-14T09:37:46;102357.53;;;2.03;100.00
24558;BME280;12726;49.148;8.582;2023-02-14T09:40:32;102356.47;;;2.05;98.18
24558;BME280;12726;49.148;8.582;2023-02-14T09:43:22;102354.34;;;2.10;97.76
24558;BME280;12726;49.148;8.582;2023-02-14T09:46:14;102354.44;;;2.09;97.63
24558;BME280;12726;49.148;8.582;2023-02-14T09:49:02;102359.00;;;2.07;97.52
24558;BME280;12726;49.148;8.582;2023-02-14T09:51:49;102355.03;;;2.25;97.90
24558;BME280;12726;49.148;8.582;2023-02-14T09:54:36;102358.94;;;2.32;96.27
24558;BME280;12726;49.148;8.582;2023-02-14T09:57:26;102357.25;;;2.31;96.79
24558;BME280;12726;49.148;8.582;2023-02-14T10:00:19;102349.47;;;2.28;96.40
24558;BME280;12726;49.148;8.582;2023-02-14T10:03:17;102355.94;;;2.36;95.69
24558;BME280;12726;49.148;8.582;2023-02-14T10:06:23;102345.94;;;2.40;96.03
24558;BME280;12726;49.148;8.582;2023-02-14T10:09:21;102337.47;;;2.59;95.92
24558;BME280;12726;49.148;8.582;2023-02-14T10:12:15;102337.06;;;2.76;96.03
24558;BME280;12726;49.148;8.582;2023-02-14T10:15:06;102348.59;;;2.88;94.17
24558;BME280;12726;49.148;8.582;2023-02-14T10:17:58;102340.25;;;2.92;93.78
24558;BME280;12726;49.148;8.582;2023-02-14T10:20:49;102333.94;;;3.17;92.71
24558;BME280;12726;49.148;8.582;2023-02-14T10:23:40;102330.53;;;3.15;92.60
24558;BME280;12726;49.148;8.582;2023-02-14T10:26:39;102330.19;;;3.42;92.34
24558;BME280;12726;49.148;8.582;2023-02-14T10:29:24;102321.75;;;3.59;89.64
24558;BME280;12726;49.148;8.582;2023-02-14T10:32:12;102320.91;;;3.59;87.71
24558;BME280;12726;49.148;8.582;2023-02-14T10:35:03;102322.50;;;3.61;87.97
24558;BME280;12726;49.148;8.582;2023-02-14T10:37:57;102319.94;;;3.71;88.93
24558;BME280;12726;49.148;8.582;2023-02-14T10:41:06;102316.69;;;3.89;88.23
24558;BME280;12726;49.148;8.582;2023-02-14T10:44:02;102318.00;;;3.95;86.12
24558;BME280;12726;49.148;8.582;2023-02-14T10:46:53;102315.47;;;3.82;85.39
24558;BME280;12726;49.148;8.582;2023-02-14T10:49:47;102317.88;;;3.85;86.70
24558;BME280;12726;49.148;8.582;2023-02-14T10:52:38;102315.13;;;4.30;86.53
24558;BME280;12726;49.148;8.582;2023-02-14T10:55:28;102313.94;;;4.66;85.02
24558;BME280;12726;49.148;8.582;2023-02-14T10:58:20;102325.00;;;4.61;83.86
24558;BME280;12726;49.148;8.582;2023-02-14T11:01:09;102304.97;;;5.29;80.71
24558;BME280;12726;49.148;8.582;2023-02-14T11:03:59;102307.06;;;7.03;77.25
24558;BME280;12726;49.148;8.582;2023-02-14T11:06:49;102294.94;;;9.09;65.35
24558;BME280;12726;49.148;8.582;2023-02-14T11:09:34;102301.59;;;10.24;61.84
24558;BME280;12726;49.148;8.582;2023-02-14T11:12:36;102295.78;;;11.02;59.25
24558;BME280;12726;49.148;8.582;2023-02-14T11:15:25;102290.84;;;11.54;54.30
24558;BME280;12726;49.148;8.582;2023-02-14T11:18:19;102293.25;;;12.95;49.45
24558;BME280;12726;49.148;8.582;2023-02-14T11:21:08;102278.06;;;13.17;50.28
24558;BME280;12726;49.148;8.582;2023-02-14T11:23:53;102275.13;;;13.04;47.68
24558;BME280;12726;49.148;8.582;2023-02-14T11:26:45;102269.25;;;12.01;50.50
24558;BME280;12726;49.148;8.582;2023-02-14T11:29:34;102257.34;;;12.49;49.72
24558;BME280;12726;49.148;8.582;2023-02-14T11:32:23;102260.75;;;11.81;52.12
24558;BME280;12726;49.148;8.582;2023-02-14T11:35:17;102260.28;;;10.90;53.40
24558;BME280;12726;49.148;8.582;2023-02-14T11:38:05;102248.28;;;10.28;55.56
24558;BME280;12726;49.148;8.582;2023-02-14T11:40:53;102248.41;;;9.68;57.03
24558;BME280;12726;49.148;8.582;2023-02-14T11:43:40;102253.69;;;9.18;59.32
24558;BME280;12726;49.148;8.582;2023-02-14T11:46:26;102240.81;;;8.78;61.28
24558;BME280;12726;49.148;8.582;2023-02-14T11:49:25;102241.13;;;8.39;63.18
24558;BME280;12726;49.148;8.582;2023-02-14T11:52:15;102235.44;;;8.24;64.12
24558;BME280;12726;49.148;8.582;2023-02-14T11:55:04;102233.03;;;8.31;65.14
24558;BME280;12726;49.148;8.582;2023-02-14T11:57:49;102237.41;;;9.87;60.69
24558;BME280;12726;49.148;8.582;2023-02-14T12:00:35;102220.91;;;10.65;56.84
24558;BME280;12726;49.148;8.582;2023-02-14T12:03:20;102220.38;;;10.37;56.10
24558;BME280;12726;49.148;8.582;2023-02-14T12:06:07;102223.41;;;10.74;57.12
24558;BME280;12726;49.148;8.582;2023-02-14T12:09:09;102223.22;;;11.08;55.48
24558;BME280;12726;49.148;8.582;2023-02-14T12:11:56;102220.00;;;11.13;54.24
24558;BME280;12726;49.148;8.582;2023-02-14T12:14:42;102208.75;;;10.69;55.25
24558;BME280;12726;49.148;8.582;2023-02-14T12:17:30;102204.06;;;10.63;56.07
24558;BME280;12726;49.148;8.582;2023-02-14T12:20:24;102197.63;;;10.31;57.60
24558;BME280;12726;49.148;8.582;2023-02-14T12:23:16;102199.44;;;10.06;57.21
24558;BME280;12726;49.148;8.582;2023-02-14T12:26:13;102199.09;;;10.01;58.23
24558;BME280;12726;49.148;8.582;2023-02-14T12:29:08;102186.38;;;10.52;57.29
24558;BME280;12726;49.148;8.582;2023-02-14T12:31:59;102185.53;;;10.76;57.45
24558;BME280;12726;49.148;8.582;2023-02-14T12:34:45;102185.25;;;11.26;55.11
24558;BME280;12726;49.148;8.582;2023-02-14T12:37:39;102176.75;;;11.37;53.40
24558;BME280;12726;49.148;8.582;2023-02-14T12:40:38;102176.97;;;12.05;52.30
24558;BME280;12726;49.148;8.582;2023-02-14T12:43:44;102177.44;;;12.32;51.96
24558;BME280;12726;49.148;8.582;2023-02-14T12:46:41;102171.25;;;12.23;49.96
24558;BME280;12726;49.148;8.582;2023-02-14T12:56:30;102157.16;;;11.51;53.54
24558;BME280;12726;49.148;8.582;2023-02-14T12:59:27;102146.91;;;11.08;53.51
24558;BME280;12726;49.148;8.582;2023-02-14T13:02:51;102154.16;;;10.99;53.85
24558;BME280;12726;49.148;8.582;2023-02-14T13:05:49;102151.63;;;10.97;54.53
24558;BME280;12726;49.148;8.582;2023-02-14T13:08:49;102148.63;;;10.84;55.47
24558;BME280;12726;49.148;8.582;2023-02-14T13:11:52;102143.94;;;10.70;55.75
24558;BME280;12726;49.148;8.582;2023-02-14T13:14:54;102135.03;;;10.53;57.15
24558;BME280;12726;49.148;8.582;2023-02-14T13:17:46;102132.88;;;10.57;56.77
24558;BME280;12726;49.148;8.582;2023-02-14T13:20:39;102135.72;;;10.15;58.16
24558;BME280;12726;49.148;8.582;2023-02-14T13:23:29;102132.47;;;9.79;59.79
24558;BME280;12726;49.148;8.582;2023-02-14T13:26:18;102138.38;;;9.99;58.87
24558;BME280;12726;49.148;8.582;2023-02-14T13:29:09;102115.13;;;9.81;59.47
24558;BME280;12726;49.148;8.582;2023-02-14T13:31:56;102118.69;;;9.98;58.61
24558;BME280;12726;49.148;8.582;2023-02-14T13:34:44;102116.16;;;9.72;59.86
24558;BME280;12726;49.148;8.582;2023-02-14T13:37:30;102114.56;;;9.54;60.37
24558;BME280;12726;49.148;8.582;2023-02-14T13:40:18;102109.50;;;9.34;62.30
24558;BME280;12726;49.148;8.582;2023-02-14T13:43:04;102100.06;;;9.38;61.60
24558;BME280;12726;49.148;8.582;2023-02-14T13:45:54;102111.72;;;9.55;61.57
24558;BME280;12726;49.148;8.582;2023-02-14T13:48:41;102104.34;;;9.57;61.11
24558;BME280;12726;49.148;8.582;2023-02-14T13:51:43;102090.94;;;9.65;60.90
24558;BME280;12726;49.148;8.582;2023-02-14T13:54:41;102094.94;;;9.61;61.10
24558;BME280;12726;49.148;8.582;2023-02-14T13:57:29;102089.97;;;9.32;61.43
24558;BME280;12726;49.148;8.582;2023-02-14T14:00:36;102085.59;;;9.23;62.08
24558;BME280;12726;49.148;8.582;2023-02-14T14:07:23;102090.75;;;9.17;62.24
24558;BME280;12726;49.148;8.582;2023-02-14T14:10:10;102086.38;;;9.08;62.65
24558;BME280;12726;49.148;8.582;2023-02-14T14:12:55;102087.53;;;8.71;63.91
24558;BME280;12726;49.148;8.582;2023-02-14T14:16:19;102088.63;;;8.60;65.05
24558;BME280;12726;49.148;8.582;2023-02-14T14:19:34;102091.50;;;8.59;64.76
24558;BME280;12726;49.148;8.582;2023-02-14T14:22:21;102093.13;;;8.52;65.63
24558;BME280;12726;49.148;8.582;2023-02-14T14:25:10;102086.81;;;8.35;66.25
24558;BME280;12726;49.148;8.582;2023-02-14T14:27:55;102095.25;;;8.22;66.71
24558;BME280;12726;49.148;8.582;2023-02-14T14:30:42;102078.94;;;7.98;67.55
24558;BME280;12726;49.148;8.582;2023-02-14T14:33:30;102083.16;;;8.01;68.17
24558;BME280;12726;49.148;8.582;2023-02-14T14:36:21;102071.50;;;7.92;67.96
24558;BME280;12726;49.148;8.582;2023-02-14T14:39:08;102081.84;;;7.69;69.35
24558;BME280;12726;49.148;8.582;2023-02-14T14:41:56;102071.59;;;7.65;69.63
24558;BME280;12726;49.148;8.582;2023-02-14T14:44:50;102065.16;;;7.58;70.02
24558;BME280;12726;49.148;8.582;2023-02-14T14:47:39;102066.06;;;7.48;70.50
24558;BME280;12726;49.148;8.582;2023-02-14T14:50:27;102068.56;;;7.32;71.20
24558;BME280;12726;49.148;8.582;2023-02-14T14:53:18;102066.63;;;7.25;71.46
24558;BME280;12726;49.148;8.582;2023-02-14T14:56:09;102056.84;;;7.16;72.13
24558;BME280;12726;49.148;8.582;2023-02-14T14:58:57;102059.09;;;7.11;72.56